createdAt,value
2023-01-22T00:00:59.406Z,24.40
2023-01-22T00:03:26.649Z,31.00
2023-01-22T00:05:53.687Z,21.10
2023-01-22T00:08:20.841Z,31.50
2023-01-22T00:10:56.091Z,48.30
2023-01-22T00:13:25.000Z,26.70
2023-01-22T00:15:52.699Z,31.50
2023-01-22T00:18:20.472Z,36.90
2023-01-22T00:20:52.666Z,36.30
2023-01-22T00:23:21.145Z,35.00
2023-01-22T00:25:48.350Z,24.40
2023-01-22T00:28:17.040Z,19.90
2023-01-22T00:30:44.266Z,36.50
2023-01-22T00:33:11.726Z,31.50
2023-01-22T00:35:39.846Z,40.00
2023-01-22T00:38:06.971Z,21.20
2023-01-22T00:40:34.276Z,38.60
2023-01-22T00:43:01.549Z,30.20
2023-01-22T00:45:28.948Z,48.30
2023-01-22T00:47:56.098Z,44.60
2023-01-22T00:50:23.259Z,35.80
2023-01-22T00:52:50.511Z,36.40
2023-01-22T00:55:18.036Z,25.60
2023-01-22T00:57:45.247Z,25.00
2023-01-22T01:00:18.666Z,51.20
2023-01-22T01:03:06.034Z,49.50
2023-01-22T01:05:33.555Z,42.40
2023-01-22T01:08:00.631Z,23.60
2023-01-22T01:10:28.367Z,38.00
2023-01-22T01:12:55.453Z,32.10
2023-01-22T01:15:22.583Z,37.10
2023-01-22T01:17:49.718Z,41.90
2023-01-22T01:20:16.995Z,33.30
2023-01-22T01:22:44.229Z,51.40
2023-01-22T01:25:11.345Z,38.40
2023-01-22T01:27:38.586Z,43.30
2023-01-22T01:30:06.341Z,35.10
2023-01-22T01:32:33.384Z,34.60
2023-01-22T01:35:00.515Z,39.90
2023-01-22T01:37:27.763Z,30.00
2023-01-22T01:39:54.940Z,44.50
2023-01-22T01:42:31.177Z,36.30
2023-01-22T01:45:20.380Z,37.50
2023-01-22T01:47:53.541Z,27.20
2023-01-22T01:50:22.899Z,39.10
2023-01-22T01:52:50.010Z,48.00
2023-01-22T01:55:21.934Z,27.10
2023-01-22T01:57:49.153Z,42.50
2023-01-22T02:00:19.340Z,38.30
2023-01-22T02:02:47.048Z,56.40
2023-01-22T02:05:15.179Z,50.30
2023-01-22T02:07:42.358Z,41.70
2023-01-22T02:10:11.437Z,30.90
2023-01-22T02:12:38.729Z,43.50
2023-01-22T02:15:07.245Z,36.20
2023-01-22T02:17:34.398Z,29.90
2023-01-22T02:20:01.648Z,45.10
2023-01-22T02:22:31.589Z,58.00
2023-01-22T02:24:59.464Z,34.70
2023-01-22T02:27:27.662Z,37.30
2023-01-22T02:29:54.816Z,45.80
2023-01-22T02:32:22.208Z,47.80
2023-01-22T02:34:49.364Z,32.20
2023-01-22T02:37:17.148Z,39.90
2023-01-22T02:39:44.349Z,35.50
2023-01-22T02:42:12.203Z,26.20
2023-01-22T02:44:40.945Z,50.50
2023-01-22T02:47:08.180Z,32.10
2023-01-22T02:49:35.424Z,45.60
2023-01-22T02:52:02.992Z,34.40
2023-01-22T02:54:30.712Z,35.20
2023-01-22T02:56:57.870Z,33.10
2023-01-22T02:59:25.650Z,45.90
2023-01-22T03:01:52.881Z,27.10
2023-01-22T03:04:19.953Z,47.20
2023-01-22T03:06:47.675Z,28.90
2023-01-22T03:09:16.764Z,34.60
2023-01-22T03:11:46.451Z,44.40
2023-01-22T03:14:35.904Z,39.90
2023-01-22T03:17:22.351Z,40.40
2023-01-22T03:20:09.876Z,31.80
2023-01-22T03:22:37.368Z,40.30
2023-01-22T03:25:04.724Z,54.00
2023-01-22T03:27:32.590Z,34.30
2023-01-22T03:29:59.781Z,48.70
2023-01-22T03:32:27.123Z,35.70
2023-01-22T03:34:55.234Z,32.40
2023-01-22T03:37:22.794Z,48.00
2023-01-22T03:39:51.740Z,35.00
2023-01-22T03:42:28.054Z,38.80
2023-01-22T03:44:55.397Z,36.40
2023-01-22T03:47:22.600Z,45.20
2023-01-22T03:49:49.991Z,37.70
2023-01-22T03:52:17.418Z,46.20
2023-01-22T03:54:45.983Z,43.50
2023-01-22T03:57:13.250Z,42.50
2023-01-22T03:59:40.511Z,44.00
2023-01-22T04:02:07.701Z,37.80
2023-01-22T04:04:37.185Z,49.90
2023-01-22T04:07:04.228Z,36.90
2023-01-22T04:09:31.308Z,33.40
2023-01-22T04:11:58.946Z,44.70
2023-01-22T04:14:26.956Z,37.10
2023-01-22T04:17:03.703Z,39.80
2023-01-22T04:19:41.456Z,48.00
2023-01-22T04:22:28.756Z,43.40
2023-01-22T04:24:56.995Z,36.00
2023-01-22T04:27:24.157Z,36.50
2023-01-22T04:29:52.977Z,43.80
2023-01-22T04:32:20.901Z,39.60
2023-01-22T04:34:50.704Z,55.40
2023-01-22T04:37:33.155Z,41.40
2023-01-22T04:40:00.221Z,53.00
2023-01-22T04:42:27.522Z,51.50
2023-01-22T04:44:54.689Z,47.70
2023-01-22T04:47:21.793Z,46.40
2023-01-22T04:49:49.102Z,35.90
2023-01-22T04:52:17.699Z,45.20
2023-01-22T04:54:44.873Z,52.20
2023-01-22T04:57:12.963Z,38.60
2023-01-22T04:59:40.255Z,46.70
2023-01-22T05:02:07.840Z,46.50
2023-01-22T05:04:35.264Z,58.50
2023-01-22T05:07:02.356Z,55.90
2023-01-22T05:09:30.644Z,41.80
2023-01-22T05:11:59.934Z,47.00
2023-01-22T05:14:30.616Z,45.30
2023-01-22T05:16:58.229Z,52.30
2023-01-22T05:19:28.857Z,44.80
2023-01-22T05:21:56.192Z,45.00
2023-01-22T05:24:23.306Z,46.90
2023-01-22T05:26:50.566Z,51.00
2023-01-22T05:29:40.618Z,67.70
2023-01-22T05:32:24.640Z,43.20
2023-01-22T05:34:55.079Z,61.10
2023-01-22T05:37:22.211Z,57.80
2023-01-22T05:39:52.100Z,64.60
2023-01-22T05:42:19.326Z,58.10
2023-01-22T05:44:48.881Z,61.80
2023-01-22T05:47:19.153Z,47.40
2023-01-22T05:49:58.959Z,69.40
2023-01-22T05:52:26.754Z,57.80
2023-01-22T05:54:53.879Z,67.90
2023-01-22T05:57:21.112Z,59.50
2023-01-22T05:59:50.741Z,101.70
2023-01-22T06:02:17.885Z,92.20
2023-01-22T06:04:45.610Z,61.40
2023-01-22T06:07:20.457Z,61.60
2023-01-22T06:09:48.054Z,56.40
2023-01-22T06:12:16.138Z,68.30
2023-01-22T06:14:43.249Z,72.30
2023-01-22T06:17:11.797Z,50.30
2023-01-22T06:19:42.735Z,88.00
2023-01-22T06:22:10.318Z,93.50
2023-01-22T06:24:57.345Z,90.30
2023-01-22T06:27:27.220Z,89.10
2023-01-22T06:29:58.416Z,62.10
2023-01-22T06:32:26.360Z,74.80
2023-01-22T06:34:53.547Z,57.10
2023-01-22T06:37:21.974Z,40.70
2023-01-22T06:39:49.307Z,55.10
2023-01-22T06:42:21.621Z,48.60
2023-01-22T06:44:50.710Z,51.70
2023-01-22T06:47:17.991Z,54.10
2023-01-22T06:49:45.254Z,66.90
2023-01-22T06:52:12.386Z,46.80
2023-01-22T06:54:39.614Z,46.70
2023-01-22T06:57:06.745Z,50.20
2023-01-22T06:59:37.123Z,71.20
2023-01-22T07:02:04.807Z,82.90
2023-01-22T07:04:31.877Z,49.60
2023-01-22T07:06:59.021Z,62.90
2023-01-22T07:09:26.177Z,50.80
2023-01-22T07:11:53.310Z,67.70
2023-01-22T07:14:35.750Z,80.10
2023-01-22T07:17:03.998Z,71.60
2023-01-22T07:19:31.076Z,59.60
2023-01-22T07:21:58.170Z,68.40
2023-01-22T07:24:25.242Z,67.70
2023-01-22T07:26:52.343Z,89.70
2023-01-22T07:29:19.414Z,79.20
2023-01-22T07:31:49.665Z,68.50
2023-01-22T07:34:16.973Z,57.60
2023-01-22T07:36:44.071Z,73.90
2023-01-22T07:39:11.172Z,72.60
2023-01-22T07:41:38.303Z,90.50
2023-01-22T07:44:12.725Z,87.00
2023-01-22T07:46:40.007Z,107.40
2023-01-22T07:49:07.819Z,78.00
2023-01-22T07:51:35.040Z,93.70
2023-01-22T07:54:02.120Z,91.40
2023-01-22T07:56:29.264Z,82.70
2023-01-22T07:58:56.303Z,83.70
2023-01-22T08:01:23.367Z,85.50
2023-01-22T08:03:50.749Z,96.00
2023-01-22T08:06:22.307Z,99.10
2023-01-22T08:08:50.465Z,93.00
2023-01-22T08:11:17.610Z,76.60
2023-01-22T08:13:44.869Z,84.90
2023-01-22T08:16:12.091Z,93.60
2023-01-22T08:18:39.156Z,72.80
2023-01-22T08:21:06.250Z,65.90
2023-01-22T08:23:33.622Z,88.30
2023-01-22T08:26:03.446Z,101.40
2023-01-22T08:28:31.755Z,99.80
2023-01-22T08:42:55.343Z,88.90
2023-01-22T08:45:22.546Z,64.40
2023-01-22T08:47:51.626Z,78.10
2023-01-22T08:50:19.013Z,76.80
2023-01-22T08:52:46.351Z,78.90
2023-01-22T08:55:13.497Z,80.70
2023-01-22T08:57:40.532Z,65.20
2023-01-22T09:00:08.845Z,71.70
2023-01-22T09:02:35.916Z,75.00
2023-01-22T09:05:03.034Z,76.20
2023-01-22T09:07:30.171Z,82.90
2023-01-22T09:09:57.228Z,99.20
2023-01-22T09:12:24.278Z,85.90
2023-01-22T09:14:51.435Z,84.20
2023-01-22T09:17:18.524Z,83.90
2023-01-22T09:19:45.591Z,82.80
2023-01-22T09:22:13.060Z,76.00
2023-01-22T09:24:40.617Z,88.40
2023-01-22T09:27:09.279Z,82.80
2023-01-22T09:29:40.833Z,73.00
2023-01-22T09:32:10.504Z,93.20
2023-01-22T09:34:37.583Z,81.20
2023-01-22T09:37:07.953Z,72.90
2023-01-22T09:39:35.009Z,73.80
2023-01-22T09:42:04.073Z,98.60
2023-01-22T09:44:41.889Z,100.80
2023-01-22T09:47:19.850Z,88.40
2023-01-22T09:49:57.588Z,93.40
2023-01-22T09:52:29.673Z,60.60
2023-01-22T09:54:56.867Z,59.40
2023-01-22T09:57:31.668Z,56.70
2023-01-22T09:59:59.603Z,39.20
2023-01-22T10:02:40.854Z,48.90
2023-01-22T10:05:35.796Z,27.30
2023-01-22T10:08:06.062Z,21.10
2023-01-22T10:10:34.314Z,14.40
2023-01-22T10:13:19.610Z,15.10
2023-01-22T10:15:48.526Z,19.10
2023-01-22T10:18:15.497Z,20.00
2023-01-22T10:20:43.902Z,16.20
2023-01-22T10:23:20.568Z,15.00
2023-01-22T10:25:48.343Z,12.00
2023-01-22T10:28:16.364Z,14.40
2023-01-22T10:30:49.053Z,16.10
2023-01-22T10:33:20.605Z,20.30
2023-01-22T10:35:50.627Z,16.10
2023-01-22T10:38:30.912Z,17.40
2023-01-22T10:41:03.012Z,10.70
2023-01-22T10:43:34.900Z,15.40
2023-01-22T10:46:05.241Z,12.90
2023-01-22T10:48:33.728Z,12.80
2023-01-22T10:51:20.061Z,22.50
2023-01-22T10:53:53.024Z,9.20
2023-01-22T10:56:31.721Z,11.60
2023-01-22T10:59:03.633Z,10.90
2023-01-22T11:01:39.918Z,11.70
2023-01-22T11:04:34.712Z,11.80
2023-01-22T11:07:09.427Z,9.80
2023-01-22T11:09:36.823Z,9.70
2023-01-22T11:12:08.519Z,17.00
2023-01-22T11:14:38.365Z,10.30
2023-01-22T11:17:16.876Z,15.70
2023-01-22T11:19:53.321Z,18.00
2023-01-22T11:22:28.955Z,17.00
2023-01-22T11:24:56.050Z,16.90
2023-01-22T11:27:45.184Z,15.70
2023-01-22T11:30:39.906Z,16.80
2023-01-22T11:33:42.857Z,18.20
2023-01-22T11:36:33.761Z,15.80
2023-01-22T11:39:19.644Z,18.80
2023-01-22T11:42:11.825Z,16.40
2023-01-22T11:44:44.906Z,18.10
2023-01-22T11:47:41.057Z,26.10
2023-01-22T11:50:18.954Z,36.00
2023-01-22T11:53:18.485Z,35.80
2023-01-22T11:56:14.340Z,24.30
2023-01-22T11:58:53.048Z,24.50
2023-01-22T12:01:45.341Z,22.30
2023-01-22T12:05:03.952Z,25.30
2023-01-22T12:07:59.057Z,28.00
2023-01-22T12:10:48.277Z,31.30
2023-01-22T12:13:57.238Z,29.20
2023-01-22T12:16:40.856Z,29.70
2023-01-22T12:19:26.636Z,25.70
2023-01-22T12:22:29.304Z,27.70
2023-01-22T12:24:59.341Z,27.70
2023-01-22T12:27:35.162Z,32.90
2023-01-22T12:30:48.178Z,30.10
2023-01-22T12:33:20.889Z,35.70
2023-01-22T12:35:51.954Z,43.30
2023-01-22T12:38:32.468Z,37.40
2023-01-22T12:41:25.257Z,35.10
2023-01-22T12:44:28.653Z,48.40
2023-01-22T12:47:05.457Z,46.80
2023-01-22T12:49:32.524Z,49.00
2023-01-22T12:52:00.232Z,44.90
2023-01-22T12:54:30.577Z,42.80
2023-01-22T12:57:12.619Z,43.40
2023-01-22T12:59:39.763Z,46.90
2023-01-22T13:02:28.608Z,63.10
2023-01-22T13:05:08.714Z,45.40
2023-01-22T13:07:38.375Z,49.10
2023-01-22T13:10:05.743Z,80.00
2023-01-22T13:12:58.122Z,60.90
2023-01-22T13:15:32.877Z,61.30
2023-01-22T13:18:07.013Z,64.60
2023-01-22T13:21:04.953Z,63.00
2023-01-22T13:23:36.592Z,66.30
2023-01-22T13:26:04.997Z,55.60
2023-01-22T13:28:32.969Z,50.10
2023-01-22T13:31:06.317Z,41.80
2023-01-22T13:33:33.652Z,36.10
2023-01-22T13:36:11.096Z,36.30
2023-01-22T13:38:38.497Z,31.80
2023-01-22T13:41:13.273Z,52.80
2023-01-22T13:43:42.663Z,45.60
2023-01-22T13:46:14.537Z,45.40
2023-01-22T13:48:41.882Z,43.90
2023-01-22T13:51:18.567Z,43.40
2023-01-22T13:53:54.786Z,38.80
2023-01-22T13:56:26.813Z,43.10
2023-01-22T13:59:16.805Z,41.40
2023-01-22T14:01:43.991Z,50.90
2023-01-22T14:04:28.407Z,52.90
2023-01-22T14:06:56.047Z,51.80
2023-01-22T14:09:33.462Z,58.90
2023-01-22T14:12:12.537Z,52.20
2023-01-22T14:14:40.746Z,56.90
2023-01-22T14:17:08.373Z,60.70
2023-01-22T14:19:36.495Z,54.30
2023-01-22T14:22:03.605Z,55.30
2023-01-22T14:24:30.799Z,57.30
2023-01-22T14:26:58.222Z,55.80
2023-01-22T14:29:25.516Z,52.10
2023-01-22T14:31:52.830Z,66.80
2023-01-22T14:34:19.948Z,78.10
2023-01-22T14:36:48.558Z,68.40
2023-01-22T14:39:15.859Z,48.00
2023-01-22T14:41:43.057Z,43.50
2023-01-22T14:44:11.215Z,45.50
2023-01-22T14:46:38.323Z,54.00
2023-01-22T14:49:05.736Z,57.00
2023-01-22T14:51:32.903Z,50.80
2023-01-22T14:54:00.023Z,60.70
2023-01-22T14:56:27.250Z,58.40
2023-01-22T14:58:54.433Z,86.10
2023-01-22T15:01:22.921Z,99.60
2023-01-22T15:03:50.245Z,88.10
2023-01-22T15:06:17.724Z,58.40
2023-01-22T15:08:44.812Z,51.30
2023-01-22T15:11:11.991Z,61.70
2023-01-22T15:13:39.039Z,64.10
2023-01-22T15:16:09.691Z,61.20
2023-01-22T15:18:37.728Z,57.00
2023-01-22T15:21:06.293Z,73.00
2023-01-22T15:23:34.816Z,64.70
2023-01-22T15:26:05.148Z,57.70
2023-01-22T15:28:32.284Z,59.90
2023-01-22T15:31:10.417Z,60.10
2023-01-22T15:33:37.805Z,61.50
2023-01-22T15:36:05.723Z,55.40
2023-01-22T15:38:32.849Z,62.60
2023-01-22T15:41:08.539Z,53.10
2023-01-22T15:43:35.661Z,55.40
2023-01-22T15:46:02.940Z,62.30
2023-01-22T15:48:30.068Z,57.40
2023-01-22T15:51:07.314Z,66.30
2023-01-22T15:53:34.503Z,59.50
2023-01-22T15:56:04.510Z,49.10
2023-01-22T15:58:32.876Z,50.00
2023-01-22T16:01:00.653Z,52.10
2023-01-22T16:03:27.858Z,53.40
2023-01-22T16:05:54.925Z,46.50
2023-01-22T16:08:22.347Z,48.00
2023-01-22T16:10:49.347Z,37.50
2023-01-22T16:13:16.383Z,35.40
2023-01-22T16:15:44.044Z,38.00
2023-01-22T16:18:11.081Z,39.20
2023-01-22T16:20:38.214Z,31.70
2023-01-22T16:23:07.141Z,28.90
2023-01-22T16:25:35.058Z,39.60
2023-01-22T16:28:02.389Z,34.90
2023-01-22T16:30:30.852Z,44.90
2023-01-22T16:32:58.437Z,44.50
2023-01-22T16:35:25.723Z,34.30
2023-01-22T16:37:52.738Z,44.80
2023-01-22T16:40:19.975Z,40.40
2023-01-22T16:43:05.948Z,34.40
2023-01-22T16:45:35.265Z,30.30
2023-01-22T16:48:02.503Z,41.80
2023-01-22T16:50:29.680Z,37.60
2023-01-22T16:52:56.811Z,40.50
2023-01-22T16:55:24.178Z,36.60
2023-01-22T16:57:52.337Z,38.30
2023-01-22T17:00:20.494Z,30.90
2023-01-22T17:02:47.853Z,31.70
2023-01-22T17:05:15.129Z,31.70
2023-01-22T17:07:42.197Z,31.90
2023-01-22T17:10:10.028Z,33.40
2023-01-22T17:12:37.091Z,29.50
2023-01-22T17:15:04.460Z,53.40
2023-01-22T17:17:32.100Z,34.20
2023-01-22T17:19:59.267Z,37.50
2023-01-22T17:22:27.406Z,31.00
2023-01-22T17:24:54.984Z,47.70
2023-01-22T17:27:26.044Z,39.40
2023-01-22T17:29:53.452Z,50.30
2023-01-22T17:32:22.867Z,46.20
2023-01-22T17:34:50.088Z,34.20
2023-01-22T17:37:17.577Z,39.50
2023-01-22T17:39:50.774Z,49.80
2023-01-22T17:42:18.876Z,43.50
2023-01-22T17:44:46.076Z,63.00
2023-01-22T17:47:13.714Z,43.40
2023-01-22T17:49:40.933Z,45.40
2023-01-22T17:52:09.454Z,37.20
2023-01-22T17:54:37.248Z,47.90
2023-01-22T17:57:05.536Z,39.20
2023-01-22T17:59:33.557Z,36.60
2023-01-22T18:02:00.767Z,44.50
2023-01-22T18:04:31.677Z,42.20
2023-01-22T18:06:58.944Z,33.60
2023-01-22T18:09:26.640Z,55.80
2023-01-22T18:11:54.627Z,40.50
2023-01-22T18:14:22.950Z,39.30
2023-01-22T18:16:51.069Z,33.10
2023-01-22T18:19:19.044Z,34.70
2023-01-22T18:21:46.869Z,36.90
2023-01-22T18:24:14.682Z,23.90
2023-01-22T18:26:42.919Z,32.60
2023-01-22T18:29:12.161Z,31.20
2023-01-22T18:31:42.089Z,40.30
2023-01-22T18:34:10.884Z,55.40
2023-01-22T18:36:39.202Z,67.10
2023-01-22T18:39:10.173Z,51.30
2023-01-22T18:41:38.173Z,46.70
2023-01-22T18:44:06.950Z,37.10
2023-01-22T18:46:37.132Z,28.80
2023-01-22T18:49:06.610Z,33.50
2023-01-22T18:51:34.742Z,33.80
2023-01-22T18:54:05.193Z,33.20
2023-01-22T18:56:32.667Z,27.50
2023-01-22T18:59:00.330Z,18.90
2023-01-22T19:01:30.920Z,25.30
2023-01-22T19:04:01.085Z,20.10
2023-01-22T19:06:31.846Z,26.20
2023-01-22T19:09:03.798Z,27.20
2023-01-22T19:11:33.033Z,32.30
2023-01-22T19:14:03.245Z,26.10
2023-01-22T19:16:30.768Z,26.80
2023-01-22T19:19:04.258Z,38.00
2023-01-22T19:21:31.578Z,25.30
2023-01-22T19:24:01.329Z,26.50
2023-01-22T19:26:34.282Z,25.50
2023-01-22T19:29:06.214Z,34.20
2023-01-22T19:31:36.881Z,24.00
2023-01-22T19:34:06.570Z,29.10
2023-01-22T19:36:38.346Z,19.30
2023-01-22T19:39:11.709Z,24.30
2023-01-22T19:41:40.083Z,26.70
2023-01-22T19:44:07.885Z,22.50
2023-01-22T19:46:35.352Z,26.00
2023-01-22T19:49:02.681Z,31.40
2023-01-22T19:51:30.942Z,29.30
2023-01-22T19:54:02.407Z,23.40
2023-01-22T19:56:33.282Z,19.60
2023-01-22T19:59:06.080Z,16.10
2023-01-22T20:01:35.326Z,20.60
2023-01-22T20:04:04.059Z,26.00
2023-01-22T20:06:31.138Z,33.50
2023-01-22T20:08:58.261Z,37.90
2023-01-22T20:11:25.804Z,40.70
2023-01-22T20:13:52.957Z,33.20
2023-01-22T20:16:23.543Z,32.30
2023-01-22T20:18:52.482Z,33.20
2023-01-22T20:21:21.997Z,26.60
2023-01-22T20:23:51.110Z,19.40
2023-01-22T20:26:20.482Z,18.00
2023-01-22T20:28:48.344Z,26.90
2023-01-22T20:31:20.136Z,29.30
2023-01-22T20:33:47.432Z,29.90
2023-01-22T20:36:15.484Z,24.40
2023-01-22T20:38:47.626Z,24.00
2023-01-22T20:41:15.100Z,29.00
2023-01-22T20:43:43.993Z,23.90
2023-01-22T20:46:18.967Z,22.30
2023-01-22T20:48:46.504Z,23.10
2023-01-22T20:51:18.194Z,28.20
2023-01-22T20:53:47.225Z,26.20
2023-01-22T20:56:18.206Z,22.40
2023-01-22T20:58:45.496Z,28.20
2023-01-22T21:01:16.466Z,24.30
2023-01-22T21:03:44.302Z,23.30
2023-01-22T21:06:14.571Z,32.20
2023-01-22T21:08:43.295Z,32.20
2023-01-22T21:11:13.253Z,19.80
2023-01-22T21:13:40.635Z,23.70
2023-01-22T21:16:10.202Z,19.40
2023-01-22T21:18:41.585Z,26.80
2023-01-22T21:21:09.818Z,32.00
2023-01-22T21:23:38.496Z,24.70
2023-01-22T21:26:11.472Z,18.30
2023-01-22T21:28:42.874Z,16.90
2023-01-22T21:31:12.915Z,24.50
2023-01-22T21:33:41.468Z,18.40
2023-01-22T21:36:10.447Z,20.20
2023-01-22T21:38:38.799Z,20.20
2023-01-22T21:41:12.711Z,20.70
2023-01-22T21:44:00.385Z,20.60
2023-01-22T21:46:31.815Z,15.90
2023-01-22T21:49:16.487Z,18.00
2023-01-22T21:51:49.687Z,20.90
2023-01-22T21:54:23.778Z,21.20
2023-01-22T21:56:51.780Z,17.20
2023-01-22T21:59:19.419Z,17.70
2023-01-22T22:01:46.894Z,30.60
2023-01-22T22:04:15.248Z,16.80
2023-01-22T22:06:42.785Z,37.50
2023-01-22T22:09:22.071Z,16.80
2023-01-22T22:11:50.024Z,14.00
2023-01-22T22:14:22.196Z,17.20
2023-01-22T22:16:49.844Z,13.80
2023-01-22T22:19:18.262Z,14.60
2023-01-22T22:21:46.157Z,22.40
2023-01-22T22:24:14.566Z,24.40
2023-01-22T22:26:41.746Z,17.40
2023-01-22T22:29:10.224Z,22.30
2023-01-22T22:31:38.253Z,15.60
2023-01-22T22:34:05.975Z,17.20
2023-01-22T22:36:33.596Z,15.70
2023-01-22T22:39:01.710Z,24.60
2023-01-22T22:41:32.367Z,20.00
2023-01-22T22:44:00.251Z,24.40
2023-01-22T22:46:38.547Z,18.00
2023-01-22T22:49:07.031Z,20.60
2023-01-22T22:51:39.780Z,12.70
2023-01-22T22:54:12.026Z,14.80
2023-01-22T22:56:39.126Z,29.20
2023-01-22T22:59:06.413Z,23.50
2023-01-22T23:01:35.732Z,16.90
2023-01-22T23:04:03.021Z,22.80
2023-01-22T23:06:33.359Z,35.40
2023-01-22T23:09:14.799Z,13.20
2023-01-22T23:11:42.563Z,16.80
2023-01-22T23:14:10.725Z,19.00
2023-01-22T23:16:41.337Z,25.40
2023-01-22T23:19:13.941Z,15.50
2023-01-22T23:21:41.840Z,15.00
2023-01-22T23:24:12.162Z,21.40
2023-01-22T23:26:40.460Z,30.20
2023-01-22T23:29:10.291Z,31.20
2023-01-22T23:31:39.506Z,19.80
2023-01-22T23:34:14.815Z,23.40
2023-01-22T23:36:45.306Z,21.20
2023-01-22T23:39:14.954Z,27.10
2023-01-22T23:41:42.857Z,22.00
2023-01-22T23:44:10.411Z,36.50
2023-01-22T23:46:39.025Z,19.80
2023-01-22T23:49:06.552Z,25.60
2023-01-22T23:51:33.813Z,23.60
2023-01-22T23:54:01.039Z,15.30
2023-01-22T23:56:32.380Z,28.10
2023-01-22T23:59:00.163Z,20.10
